sensor_id;sensor_type;location;lat;lon;timestamp;P1;durP1;ratioP1;P2;durP2;ratioP2
25531;SDS011;13429;48.816;9.118;2022-11-20T00:01:18;25.98;;;13.52;;
25531;SDS011;13429;48.816;9.118;2022-11-20T00:03:44;86.32;;;27.83;;
25531;SDS011;13429;48.816;9.118;2022-11-20T00:06:11;57.33;;;25.60;;
25531;SDS011;13429;48.816;9.118;2022-11-20T00:08:38;30.75;;;17.58;;
25531;SDS011;13429;48.816;9.118;2022-11-20T00:11:07;45.42;;;20.58;;
25531;SDS011;13429;48.816;9.118;2022-11-20T00:13:33;32.67;;;16.05;;
25531;SDS011;13429;48.816;9.118;2022-11-20T00:16:00;33.75;;;17.70;;
25531;SDS011;13429;48.816;9.118;2022-11-20T00:18:27;30.23;;;16.45;;
25531;SDS011;13429;48.816;9.118;2022-11-20T00:20:53;31.33;;;15.50;;
25531;SDS011;13429;48.816;9.118;2022-11-20T00:23:19;31.52;;;16.23;;
25531;SDS011;13429;48.816;9.118;2022-11-20T00:25:45;23.80;;;14.77;;
25531;SDS011;13429;48.816;9.118;2022-11-20T00:28:11;23.50;;;13.05;;
25531;SDS011;13429;48.816;9.118;2022-11-20T00:30:37;27.63;;;13.48;;
25531;SDS011;13429;48.816;9.118;2022-11-20T00:33:03;22.27;;;12.25;;
25531;SDS011;13429;48.816;9.118;2022-11-20T00:35:29;20.13;;;12.27;;
25531;SDS011;13429;48.816;9.118;2022-11-20T00:37:55;30.75;;;11.77;;
25531;SDS011;13429;48.816;9.118;2022-11-20T00:40:21;17.48;;;11.23;;
25531;SDS011;13429;48.816;9.118;2022-11-20T00:42:47;19.52;;;11.60;;
25531;SDS011;13429;48.816;9.118;2022-11-20T00:45:13;21.05;;;10.52;;
25531;SDS011;13429;48.816;9.118;2022-11-20T00:47:39;14.45;;;9.20;;
25531;SDS011;13429;48.816;9.118;2022-11-20T00:50:05;14.00;;;8.70;;
25531;SDS011;13429;48.816;9.118;2022-11-20T00:52:31;13.05;;;8.50;;
25531;SDS011;13429;48.816;9.118;2022-11-20T00:54:57;10.45;;;7.30;;
25531;SDS011;13429;48.816;9.118;2022-11-20T00:57:22;14.32;;;7.80;;
25531;SDS011;13429;48.816;9.118;2022-11-20T00:59:48;9.52;;;6.75;;
25531;SDS011;13429;48.816;9.118;2022-11-20T01:02:14;10.27;;;6.00;;
25531;SDS011;13429;48.816;9.118;2022-11-20T01:04:41;10.32;;;6.25;;
25531;SDS011;13429;48.816;9.118;2022-11-20T01:07:07;9.65;;;5.50;;
25531;SDS011;13429;48.816;9.118;2022-11-20T01:09:33;11.90;;;5.18;;
25531;SDS011;13429;48.816;9.118;2022-11-20T01:11:59;7.20;;;5.10;;
25531;SDS011;13429;48.816;9.118;2022-11-20T01:14:25;8.88;;;4.45;;
25531;SDS011;13429;48.816;9.118;2022-11-20T01:16:51;7.30;;;4.68;;
25531;SDS011;13429;48.816;9.118;2022-11-20T01:19:18;7.30;;;5.18;;
25531;SDS011;13429;48.816;9.118;2022-11-20T01:21:45;8.55;;;5.15;;
25531;SDS011;13429;48.816;9.118;2022-11-20T01:24:13;10.07;;;5.78;;
25531;SDS011;13429;48.816;9.118;2022-11-20T01:26:39;7.13;;;4.88;;
25531;SDS011;13429;48.816;9.118;2022-11-20T01:29:06;7.45;;;5.00;;
25531;SDS011;13429;48.816;9.118;2022-11-20T01:31:34;8.98;;;5.10;;
25531;SDS011;13429;48.816;9.118;2022-11-20T01:34:01;7.78;;;5.32;;
25531;SDS011;13429;48.816;9.118;2022-11-20T01:36:28;10.80;;;5.57;;
25531;SDS011;13429;48.816;9.118;2022-11-20T01:38:56;10.25;;;5.82;;
25531;SDS011;13429;48.816;9.118;2022-11-20T01:41:23;8.18;;;5.30;;
25531;SDS011;13429;48.816;9.118;2022-11-20T01:44:09;7.85;;;5.20;;
25531;SDS011;13429;48.816;9.118;2022-11-20T01:46:37;8.65;;;5.07;;
25531;SDS011;13429;48.816;9.118;2022-11-20T01:49:11;7.72;;;5.28;;
25531;SDS011;13429;48.816;9.118;2022-11-20T01:51:44;6.15;;;4.50;;
25531;SDS011;13429;48.816;9.118;2022-11-20T01:54:12;6.03;;;4.53;;
25531;SDS011;13429;48.816;9.118;2022-11-20T01:56:41;7.20;;;4.82;;
25531;SDS011;13429;48.816;9.118;2022-11-20T01:59:08;7.45;;;4.35;;
25531;SDS011;13429;48.816;9.118;2022-11-20T02:01:35;6.25;;;4.60;;
25531;SDS011;13429;48.816;9.118;2022-11-20T02:04:01;8.15;;;4.65;;
25531;SDS011;13429;48.816;9.118;2022-11-20T02:06:32;7.45;;;5.10;;
25531;SDS011;13429;48.816;9.118;2022-11-20T02:09:00;10.48;;;5.97;;
25531;SDS011;13429;48.816;9.118;2022-11-20T02:11:27;10.25;;;6.68;;
25531;SDS011;13429;48.816;9.118;2022-11-20T02:13:55;11.02;;;6.50;;
25531;SDS011;13429;48.816;9.118;2022-11-20T02:18:50;12.23;;;6.15;;
25531;SDS011;13429;48.816;9.118;2022-11-20T02:24:18;9.60;;;5.93;;
25531;SDS011;13429;48.816;9.118;2022-11-20T02:26:39;11.35;;;7.03;;
25531;SDS011;13429;48.816;9.118;2022-11-20T02:29:06;8.43;;;5.50;;
25531;SDS011;13429;48.816;9.118;2022-11-20T02:31:40;10.57;;;6.38;;
25531;SDS011;13429;48.816;9.118;2022-11-20T02:34:06;13.40;;;7.03;;
25531;SDS011;13429;48.816;9.118;2022-11-20T02:36:33;11.10;;;7.05;;
25531;SDS011;13429;48.816;9.118;2022-11-20T02:39:00;16.35;;;6.97;;
25531;SDS011;13429;48.816;9.118;2022-11-20T02:41:30;6.88;;;4.82;;
25531;SDS011;13429;48.816;9.118;2022-11-20T02:43:56;6.10;;;3.17;;
25531;SDS011;13429;48.816;9.118;2022-11-20T02:46:22;5.55;;;3.00;;
25531;SDS011;13429;48.816;9.118;2022-11-20T02:48:48;4.05;;;2.72;;
25531;SDS011;13429;48.816;9.118;2022-11-20T02:51:14;5.55;;;2.47;;
25531;SDS011;13429;48.816;9.118;2022-11-20T02:53:40;3.22;;;2.63;;
25531;SDS011;13429;48.816;9.118;2022-11-20T02:56:06;7.88;;;2.40;;
25531;SDS011;13429;48.816;9.118;2022-11-20T02:58:32;5.82;;;3.22;;
25531;SDS011;13429;48.816;9.118;2022-11-20T03:00:58;5.50;;;2.72;;
25531;SDS011;13429;48.816;9.118;2022-11-20T03:03:24;5.50;;;2.53;;
25531;SDS011;13429;48.816;9.118;2022-11-20T03:05:50;3.38;;;2.42;;
25531;SDS011;13429;48.816;9.118;2022-11-20T03:08:16;6.85;;;2.90;;
25531;SDS011;13429;48.816;9.118;2022-11-20T03:10:41;4.28;;;2.53;;
25531;SDS011;13429;48.816;9.118;2022-11-20T03:13:07;4.53;;;3.20;;
25531;SDS011;13429;48.816;9.118;2022-11-20T03:15:35;3.95;;;3.05;;
25531;SDS011;13429;48.816;9.118;2022-11-20T03:18:01;5.72;;;3.08;;
25531;SDS011;13429;48.816;9.118;2022-11-20T03:20:27;6.68;;;2.95;;
25531;SDS011;13429;48.816;9.118;2022-11-20T03:26:06;6.28;;;3.03;;
25531;SDS011;13429;48.816;9.118;2022-11-20T03:28:32;4.28;;;2.72;;
25531;SDS011;13429;48.816;9.118;2022-11-20T03:30:58;6.22;;;3.35;;
25531;SDS011;13429;48.816;9.118;2022-11-20T03:33:24;5.70;;;3.20;;
25531;SDS011;13429;48.816;9.118;2022-11-20T03:35:53;4.50;;;3.03;;
25531;SDS011;13429;48.816;9.118;2022-11-20T03:38:19;6.32;;;3.60;;
25531;SDS011;13429;48.816;9.118;2022-11-20T03:40:45;9.07;;;3.00;;
25531;SDS011;13429;48.816;9.118;2022-11-20T03:43:11;4.43;;;3.17;;
25531;SDS011;13429;48.816;9.118;2022-11-20T03:45:37;7.97;;;3.55;;
25531;SDS011;13429;48.816;9.118;2022-11-20T03:48:03;5.07;;;3.28;;
25531;SDS011;13429;48.816;9.118;2022-11-20T03:50:29;5.97;;;3.28;;
25531;SDS011;13429;48.816;9.118;2022-11-20T03:52:55;8.70;;;3.50;;
25531;SDS011;13429;48.816;9.118;2022-11-20T03:55:21;6.10;;;3.47;;
25531;SDS011;13429;48.816;9.118;2022-11-20T03:57:47;5.32;;;3.40;;
25531;SDS011;13429;48.816;9.118;2022-11-20T04:00:13;4.88;;;3.47;;
25531;SDS011;13429;48.816;9.118;2022-11-20T04:02:39;5.63;;;3.33;;
25531;SDS011;13429;48.816;9.118;2022-11-20T04:05:05;7.32;;;3.08;;
25531;SDS011;13429;48.816;9.118;2022-11-20T04:07:33;6.95;;;3.60;;
25531;SDS011;13429;48.816;9.118;2022-11-20T04:09:59;5.47;;;3.50;;
25531;SDS011;13429;48.816;9.118;2022-11-20T04:12:25;7.53;;;3.63;;
25531;SDS011;13429;48.816;9.118;2022-11-20T04:14:51;4.63;;;3.50;;
25531;SDS011;13429;48.816;9.118;2022-11-20T04:17:17;5.72;;;4.05;;
25531;SDS011;13429;48.816;9.118;2022-11-20T04:19:43;7.05;;;3.35;;
25531;SDS011;13429;48.816;9.118;2022-11-20T04:22:09;5.00;;;3.65;;
25531;SDS011;13429;48.816;9.118;2022-11-20T04:24:36;5.75;;;3.72;;
25531;SDS011;13429;48.816;9.118;2022-11-20T04:27:03;4.55;;;3.08;;
25531;SDS011;13429;48.816;9.118;2022-11-20T04:29:29;6.60;;;3.65;;
25531;SDS011;13429;48.816;9.118;2022-11-20T04:31:55;4.28;;;2.75;;
25531;SDS011;13429;48.816;9.118;2022-11-20T04:34:21;6.03;;;3.45;;
25531;SDS011;13429;48.816;9.118;2022-11-20T04:36:47;3.63;;;2.55;;
25531;SDS011;13429;48.816;9.118;2022-11-20T04:39:13;5.50;;;2.88;;
25531;SDS011;13429;48.816;9.118;2022-11-20T04:41:42;5.45;;;2.67;;
25531;SDS011;13429;48.816;9.118;2022-11-20T04:44:08;5.13;;;2.72;;
25531;SDS011;13429;48.816;9.118;2022-11-20T04:46:39;4.85;;;2.78;;
25531;SDS011;13429;48.816;9.118;2022-11-20T04:49:06;4.25;;;2.85;;
25531;SDS011;13429;48.816;9.118;2022-11-20T04:51:32;3.20;;;2.63;;
25531;SDS011;13429;48.816;9.118;2022-11-20T04:53:58;3.33;;;2.53;;
25531;SDS011;13429;48.816;9.118;2022-11-20T04:56:24;3.97;;;2.88;;
25531;SDS011;13429;48.816;9.118;2022-11-20T04:58:50;4.47;;;2.83;;
25531;SDS011;13429;48.816;9.118;2022-11-20T05:01:18;3.70;;;2.80;;
25531;SDS011;13429;48.816;9.118;2022-11-20T05:03:44;2.85;;;2.13;;
25531;SDS011;13429;48.816;9.118;2022-11-20T05:06:14;4.03;;;2.83;;
25531;SDS011;13429;48.816;9.118;2022-11-20T05:08:40;4.85;;;2.75;;
25531;SDS011;13429;48.816;9.118;2022-11-20T05:11:07;6.22;;;2.58;;
25531;SDS011;13429;48.816;9.118;2022-11-20T05:13:33;3.83;;;2.65;;
25531;SDS011;13429;48.816;9.118;2022-11-20T05:16:06;4.38;;;2.78;;
25531;SDS011;13429;48.816;9.118;2022-11-20T05:18:33;3.67;;;2.55;;
25531;SDS011;13429;48.816;9.118;2022-11-20T05:20:59;4.57;;;2.58;;
25531;SDS011;13429;48.816;9.118;2022-11-20T05:23:26;4.18;;;2.72;;
25531;SDS011;13429;48.816;9.118;2022-11-20T05:25:53;4.95;;;2.92;;
25531;SDS011;13429;48.816;9.118;2022-11-20T05:28:19;4.82;;;2.40;;
25531;SDS011;13429;48.816;9.118;2022-11-20T05:30:45;6.18;;;2.92;;
25531;SDS011;13429;48.816;9.118;2022-11-20T05:33:11;4.90;;;2.80;;
25531;SDS011;13429;48.816;9.118;2022-11-20T05:35:37;5.78;;;2.90;;
25531;SDS011;13429;48.816;9.118;2022-11-20T05:38:03;5.68;;;2.95;;
25531;SDS011;13429;48.816;9.118;2022-11-20T05:40:29;3.83;;;2.78;;
25531;SDS011;13429;48.816;9.118;2022-11-20T05:42:55;5.53;;;3.10;;
25531;SDS011;13429;48.816;9.118;2022-11-20T05:45:21;4.72;;;2.25;;
25531;SDS011;13429;48.816;9.118;2022-11-20T05:47:47;4.85;;;2.70;;
25531;SDS011;13429;48.816;9.118;2022-11-20T05:53:17;5.53;;;2.85;;
25531;SDS011;13429;48.816;9.118;2022-11-20T05:55:43;3.78;;;2.75;;
25531;SDS011;13429;48.816;9.118;2022-11-20T05:58:09;4.15;;;3.20;;
25531;SDS011;13429;48.816;9.118;2022-11-20T06:00:35;3.88;;;2.75;;
25531;SDS011;13429;48.816;9.118;2022-11-20T06:03:01;6.05;;;3.03;;
25531;SDS011;13429;48.816;9.118;2022-11-20T06:05:27;3.72;;;2.83;;
25531;SDS011;13429;48.816;9.118;2022-11-20T06:07:53;5.13;;;2.47;;
25531;SDS011;13429;48.816;9.118;2022-11-20T06:10:19;4.50;;;2.58;;
25531;SDS011;13429;48.816;9.118;2022-11-20T06:12:45;4.43;;;2.50;;
25531;SDS011;13429;48.816;9.118;2022-11-20T06:15:11;3.97;;;2.33;;
25531;SDS011;13429;48.816;9.118;2022-11-20T06:17:37;5.03;;;2.53;;
25531;SDS011;13429;48.816;9.118;2022-11-20T06:20:03;3.50;;;2.33;;
25531;SDS011;13429;48.816;9.118;2022-11-20T06:22:29;3.28;;;2.40;;
25531;SDS011;13429;48.816;9.118;2022-11-20T06:24:55;4.13;;;2.75;;
25531;SDS011;13429;48.816;9.118;2022-11-20T06:27:20;4.72;;;2.42;;
25531;SDS011;13429;48.816;9.118;2022-11-20T06:29:46;3.78;;;2.25;;
25531;SDS011;13429;48.816;9.118;2022-11-20T06:32:12;4.35;;;2.80;;
25531;SDS011;13429;48.816;9.118;2022-11-20T06:34:38;5.75;;;3.08;;
25531;SDS011;13429;48.816;9.118;2022-11-20T06:37:05;3.92;;;2.53;;
25531;SDS011;13429;48.816;9.118;2022-11-20T06:39:31;4.03;;;2.83;;
25531;SDS011;13429;48.816;9.118;2022-11-20T06:41:57;4.55;;;2.83;;
25531;SDS011;13429;48.816;9.118;2022-11-20T06:44:22;3.13;;;1.98;;
25531;SDS011;13429;48.816;9.118;2022-11-20T06:46:48;3.55;;;2.22;;
25531;SDS011;13429;48.816;9.118;2022-11-20T06:49:14;3.50;;;2.40;;
25531;SDS011;13429;48.816;9.118;2022-11-20T06:51:40;3.15;;;2.22;;
25531;SDS011;13429;48.816;9.118;2022-11-20T06:54:06;4.65;;;2.33;;
25531;SDS011;13429;48.816;9.118;2022-11-20T06:56:32;3.53;;;1.85;;
25531;SDS011;13429;48.816;9.118;2022-11-20T06:58:58;4.50;;;2.55;;
25531;SDS011;13429;48.816;9.118;2022-11-20T07:01:24;5.28;;;2.78;;
25531;SDS011;13429;48.816;9.118;2022-11-20T07:03:50;3.22;;;2.13;;
25531;SDS011;13429;48.816;9.118;2022-11-20T07:06:16;2.78;;;2.00;;
25531;SDS011;13429;48.816;9.118;2022-11-20T07:08:42;5.03;;;1.77;;
25531;SDS011;13429;48.816;9.118;2022-11-20T07:11:11;3.08;;;2.10;;
25531;SDS011;13429;48.816;9.118;2022-11-20T07:13:37;3.25;;;2.20;;
25531;SDS011;13429;48.816;9.118;2022-11-20T07:16:04;2.45;;;1.75;;
25531;SDS011;13429;48.816;9.118;2022-11-20T07:18:31;3.30;;;1.88;;
25531;SDS011;13429;48.816;9.118;2022-11-20T07:20:59;3.10;;;1.55;;
25531;SDS011;13429;48.816;9.118;2022-11-20T07:23:25;3.92;;;2.50;;
25531;SDS011;13429;48.816;9.118;2022-11-20T07:25:51;6.78;;;2.22;;
25531;SDS011;13429;48.816;9.118;2022-11-20T07:28:17;3.70;;;2.20;;
25531;SDS011;13429;48.816;9.118;2022-11-20T07:30:48;2.63;;;1.80;;
25531;SDS011;13429;48.816;9.118;2022-11-20T07:35:40;3.30;;;2.30;;
25531;SDS011;13429;48.816;9.118;2022-11-20T07:38:06;5.15;;;1.73;;
25531;SDS011;13429;48.816;9.118;2022-11-20T07:40:33;4.65;;;1.60;;
25531;SDS011;13429;48.816;9.118;2022-11-20T07:42:58;3.45;;;1.80;;
25531;SDS011;13429;48.816;9.118;2022-11-20T07:45:24;4.10;;;2.15;;
25531;SDS011;13429;48.816;9.118;2022-11-20T07:47:50;3.00;;;2.05;;
25531;SDS011;13429;48.816;9.118;2022-11-20T07:50:17;3.35;;;2.00;;
25531;SDS011;13429;48.816;9.118;2022-11-20T07:52:43;5.55;;;2.30;;
25531;SDS011;13429;48.816;9.118;2022-11-20T08:04:26;6.38;;;2.65;;
25531;SDS011;13429;48.816;9.118;2022-11-20T08:06:52;5.70;;;2.55;;
25531;SDS011;13429;48.816;9.118;2022-11-20T08:09:19;6.30;;;2.33;;
25531;SDS011;13429;48.816;9.118;2022-11-20T08:11:45;7.97;;;3.85;;
25531;SDS011;13429;48.816;9.118;2022-11-20T08:14:30;5.07;;;2.67;;
25531;SDS011;13429;48.816;9.118;2022-11-20T08:16:56;3.95;;;2.95;;
25531;SDS011;13429;48.816;9.118;2022-11-20T08:19:22;3.28;;;2.40;;
25531;SDS011;13429;48.816;9.118;2022-11-20T08:21:48;7.35;;;2.90;;
25531;SDS011;13429;48.816;9.118;2022-11-20T08:24:14;3.03;;;2.10;;
25531;SDS011;13429;48.816;9.118;2022-11-20T08:26:40;4.38;;;2.70;;
25531;SDS011;13429;48.816;9.118;2022-11-20T08:29:06;6.70;;;2.38;;
25531;SDS011;13429;48.816;9.118;2022-11-20T08:31:32;7.10;;;3.92;;
25531;SDS011;13429;48.816;9.118;2022-11-20T08:33:58;2.95;;;1.75;;
25531;SDS011;13429;48.816;9.118;2022-11-20T08:36:24;2.00;;;1.25;;
25531;SDS011;13429;48.816;9.118;2022-11-20T08:38:53;3.42;;;1.33;;
25531;SDS011;13429;48.816;9.118;2022-11-20T08:41:19;2.47;;;1.33;;
25531;SDS011;13429;48.816;9.118;2022-11-20T08:43:48;4.35;;;1.20;;
25531;SDS011;13429;48.816;9.118;2022-11-20T08:46:15;1.25;;;0.90;;
25531;SDS011;13429;48.816;9.118;2022-11-20T08:48:41;1.80;;;1.20;;
25531;SDS011;13429;48.816;9.118;2022-11-20T08:51:07;2.10;;;1.17;;
25531;SDS011;13429;48.816;9.118;2022-11-20T08:53:33;2.17;;;1.30;;
25531;SDS011;13429;48.816;9.118;2022-11-20T08:55:59;2.28;;;1.10;;
25531;SDS011;13429;48.816;9.118;2022-11-20T08:58:25;2.85;;;1.40;;
25531;SDS011;13429;48.816;9.118;2022-11-20T09:00:51;2.08;;;0.95;;
25531;SDS011;13429;48.816;9.118;2022-11-20T09:03:17;1.30;;;0.90;;
25531;SDS011;13429;48.816;9.118;2022-11-20T09:05:43;2.05;;;0.85;;
25531;SDS011;13429;48.816;9.118;2022-11-20T09:08:09;1.15;;;0.77;;
25531;SDS011;13429;48.816;9.118;2022-11-20T09:10:35;1.20;;;0.80;;
25531;SDS011;13429;48.816;9.118;2022-11-20T09:13:04;2.55;;;0.88;;
25531;SDS011;13429;48.816;9.118;2022-11-20T09:15:30;1.35;;;0.75;;
25531;SDS011;13429;48.816;9.118;2022-11-20T09:18:00;1.40;;;0.90;;
25531;SDS011;13429;48.816;9.118;2022-11-20T09:20:27;1.13;;;0.70;;
25531;SDS011;13429;48.816;9.118;2022-11-20T09:22:53;2.08;;;0.90;;
25531;SDS011;13429;48.816;9.118;2022-11-20T09:25:19;2.13;;;0.90;;
25531;SDS011;13429;48.816;9.118;2022-11-20T09:27:45;0.85;;;0.80;;
25531;SDS011;13429;48.816;9.118;2022-11-20T09:30:12;4.05;;;1.20;;
25531;SDS011;13429;48.816;9.118;2022-11-20T09:32:39;3.10;;;1.52;;
25531;SDS011;13429;48.816;9.118;2022-11-20T09:35:05;1.88;;;1.08;;
25531;SDS011;13429;48.816;9.118;2022-11-20T09:37:31;1.52;;;1.10;;
25531;SDS011;13429;48.816;9.118;2022-11-20T09:43:21;2.50;;;0.88;;
25531;SDS011;13429;48.816;9.118;2022-11-20T09:51:08;0.70;;;0.50;;
25531;SDS011;13429;48.816;9.118;2022-11-20T09:56:11;1.50;;;0.90;;
25531;SDS011;13429;48.816;9.118;2022-11-20T09:58:50;2.95;;;1.52;;
25531;SDS011;13429;48.816;9.118;2022-11-20T10:01:17;1.20;;;0.77;;
25531;SDS011;13429;48.816;9.118;2022-11-20T10:06:11;1.35;;;0.80;;
25531;SDS011;13429;48.816;9.118;2022-11-20T10:11:33;3.10;;;1.67;;
25531;SDS011;13429;48.816;9.118;2022-11-20T10:29:41;1.55;;;0.85;;
25531;SDS011;13429;48.816;9.118;2022-11-20T10:32:16;1.85;;;1.10;;
25531;SDS011;13429;48.816;9.118;2022-11-20T10:37:16;2.97;;;1.15;;
25531;SDS011;13429;48.816;9.118;2022-11-20T10:42:35;3.97;;;1.30;;
25531;SDS011;13429;48.816;9.118;2022-11-20T10:50:35;1.55;;;1.20;;
25531;SDS011;13429;48.816;9.118;2022-11-20T10:55:30;5.45;;;2.67;;
25531;SDS011;13429;48.816;9.118;2022-11-20T10:58:10;11.45;;;4.35;;
25531;SDS011;13429;48.816;9.118;2022-11-20T11:00:39;5.75;;;3.00;;
25531;SDS011;13429;48.816;9.118;2022-11-20T11:03:14;3.70;;;2.45;;
25531;SDS011;13429;48.816;9.118;2022-11-20T11:06:00;3.10;;;1.42;;
25531;SDS011;13429;48.816;9.118;2022-11-20T11:08:29;2.55;;;1.65;;
25531;SDS011;13429;48.816;9.118;2022-11-20T11:10:59;4.80;;;1.40;;
25531;SDS011;13429;48.816;9.118;2022-11-20T11:13:29;4.72;;;1.90;;
25531;SDS011;13429;48.816;9.118;2022-11-20T11:15:56;2.33;;;1.85;;
25531;SDS011;13429;48.816;9.118;2022-11-20T11:18:23;5.40;;;1.92;;
25531;SDS011;13429;48.816;9.118;2022-11-20T11:20:50;4.38;;;1.73;;
25531;SDS011;13429;48.816;9.118;2022-11-20T11:25:58;2.88;;;1.95;;
25531;SDS011;13429;48.816;9.118;2022-11-20T11:28:24;4.50;;;2.20;;
25531;SDS011;13429;48.816;9.118;2022-11-20T11:30:52;3.60;;;2.00;;
25531;SDS011;13429;48.816;9.118;2022-11-20T11:33:20;2.97;;;2.20;;
25531;SDS011;13429;48.816;9.118;2022-11-20T11:35:48;2.88;;;2.00;;
25531;SDS011;13429;48.816;9.118;2022-11-20T11:38:37;3.58;;;2.20;;
25531;SDS011;13429;48.816;9.118;2022-11-20T11:41:01;4.45;;;2.10;;
25531;SDS011;13429;48.816;9.118;2022-11-20T11:43:28;8.90;;;2.55;;
25531;SDS011;13429;48.816;9.118;2022-11-20T11:46:22;6.55;;;2.58;;
25531;SDS011;13429;48.816;9.118;2022-11-20T11:52:17;2.65;;;2.20;;
25531;SDS011;13429;48.816;9.118;2022-11-20T11:57:01;2.92;;;1.95;;
25531;SDS011;13429;48.816;9.118;2022-11-20T11:59:43;5.22;;;2.25;;
25531;SDS011;13429;48.816;9.118;2022-11-20T12:02:25;3.80;;;2.17;;
25531;SDS011;13429;48.816;9.118;2022-11-20T12:05:00;3.05;;;1.70;;
25531;SDS011;13429;48.816;9.118;2022-11-20T12:07:39;5.38;;;1.70;;
25531;SDS011;13429;48.816;9.118;2022-11-20T12:10:13;4.28;;;2.20;;
25531;SDS011;13429;48.816;9.118;2022-11-20T12:12:41;5.40;;;1.75;;
25531;SDS011;13429;48.816;9.118;2022-11-20T12:15:12;5.47;;;1.85;;
25531;SDS011;13429;48.816;9.118;2022-11-20T12:17:38;4.38;;;1.17;;
25531;SDS011;13429;48.816;9.118;2022-11-20T12:20:10;6.50;;;1.70;;
25531;SDS011;13429;48.816;9.118;2022-11-20T12:25:11;2.70;;;1.00;;
25531;SDS011;13429;48.816;9.118;2022-11-20T12:27:43;4.18;;;1.00;;
25531;SDS011;13429;48.816;9.118;2022-11-20T12:30:11;2.57;;;1.23;;
25531;SDS011;13429;48.816;9.118;2022-11-20T12:32:42;1.13;;;0.88;;
25531;SDS011;13429;48.816;9.118;2022-11-20T12:43:19;2.28;;;1.20;;
25531;SDS011;13429;48.816;9.118;2022-11-20T12:46:17;4.57;;;1.30;;
25531;SDS011;13429;48.816;9.118;2022-11-20T12:48:48;2.42;;;1.02;;
25531;SDS011;13429;48.816;9.118;2022-11-20T12:52:00;1.60;;;0.90;;
25531;SDS011;13429;48.816;9.118;2022-11-20T13:06:42;3.85;;;0.80;;
25531;SDS011;13429;48.816;9.118;2022-11-20T13:09:10;1.70;;;0.90;;
25531;SDS011;13429;48.816;9.118;2022-11-20T13:11:43;1.88;;;1.00;;
25531;SDS011;13429;48.816;9.118;2022-11-20T13:14:32;3.78;;;1.17;;
25531;SDS011;13429;48.816;9.118;2022-11-20T13:17:11;2.75;;;1.00;;
25531;SDS011;13429;48.816;9.118;2022-11-20T13:19:39;5.35;;;1.10;;
25531;SDS011;13429;48.816;9.118;2022-11-20T13:22:05;2.15;;;0.85;;
25531;SDS011;13429;48.816;9.118;2022-11-20T13:24:31;1.75;;;0.80;;
25531;SDS011;13429;48.816;9.118;2022-11-20T13:29:26;2.03;;;1.17;;
25531;SDS011;13429;48.816;9.118;2022-11-20T13:32:00;3.50;;;1.17;;
25531;SDS011;13429;48.816;9.118;2022-11-20T13:34:27;3.03;;;0.70;;
25531;SDS011;13429;48.816;9.118;2022-11-20T13:36:55;1.77;;;0.80;;
25531;SDS011;13429;48.816;9.118;2022-11-20T13:39:28;2.00;;;0.98;;
25531;SDS011;13429;48.816;9.118;2022-11-20T13:42:01;1.40;;;0.73;;
25531;SDS011;13429;48.816;9.118;2022-11-20T13:46:56;3.25;;;0.80;;
25531;SDS011;13429;48.816;9.118;2022-11-20T13:51:51;6.55;;;1.33;;
25531;SDS011;13429;48.816;9.118;2022-11-20T13:54:31;2.35;;;0.80;;
25531;SDS011;13429;48.816;9.118;2022-11-20T13:57:09;2.70;;;1.00;;
25531;SDS011;13429;48.816;9.118;2022-11-20T13:59:50;2.90;;;1.15;;
25531;SDS011;13429;48.816;9.118;2022-11-20T14:02:20;1.73;;;1.02;;
25531;SDS011;13429;48.816;9.118;2022-11-20T14:04:48;2.30;;;0.90;;
25531;SDS011;13429;48.816;9.118;2022-11-20T14:07:14;5.45;;;1.15;;
25531;SDS011;13429;48.816;9.118;2022-11-20T14:09:49;0.95;;;0.73;;
25531;SDS011;13429;48.816;9.118;2022-11-20T14:12:15;1.30;;;0.70;;
25531;SDS011;13429;48.816;9.118;2022-11-20T14:14:49;1.45;;;0.90;;
25531;SDS011;13429;48.816;9.118;2022-11-20T14:17:20;1.23;;;0.85;;
25531;SDS011;13429;48.816;9.118;2022-11-20T14:19:48;0.82;;;0.63;;
25531;SDS011;13429;48.816;9.118;2022-11-20T14:22:19;3.65;;;1.10;;
25531;SDS011;13429;48.816;9.118;2022-11-20T14:24:46;1.55;;;0.90;;
25531;SDS011;13429;48.816;9.118;2022-11-20T14:27:22;3.15;;;0.93;;
25531;SDS011;13429;48.816;9.118;2022-11-20T14:29:48;6.25;;;1.40;;
25531;SDS011;13429;48.816;9.118;2022-11-20T14:32:17;2.30;;;1.05;;
25531;SDS011;13429;48.816;9.118;2022-11-20T14:34:45;1.52;;;0.60;;
25531;SDS011;13429;48.816;9.118;2022-11-20T14:37:12;3.08;;;1.33;;
25531;SDS011;13429;48.816;9.118;2022-11-20T14:39:42;0.95;;;0.63;;
25531;SDS011;13429;48.816;9.118;2022-11-20T14:42:16;4.40;;;1.20;;
25531;SDS011;13429;48.816;9.118;2022-11-20T14:44:42;2.83;;;1.20;;
25531;SDS011;13429;48.816;9.118;2022-11-20T14:47:08;2.10;;;0.95;;
25531;SDS011;13429;48.816;9.118;2022-11-20T14:49:36;3.25;;;1.08;;
25531;SDS011;13429;48.816;9.118;2022-11-20T14:52:09;4.40;;;1.08;;
25531;SDS011;13429;48.816;9.118;2022-11-20T14:54:43;5.50;;;1.42;;
25531;SDS011;13429;48.816;9.118;2022-11-20T14:57:18;1.40;;;1.10;;
25531;SDS011;13429;48.816;9.118;2022-11-20T14:59:45;4.18;;;1.50;;
25531;SDS011;13429;48.816;9.118;2022-11-20T15:02:11;2.28;;;1.00;;
25531;SDS011;13429;48.816;9.118;2022-11-20T15:04:50;1.80;;;1.00;;
25531;SDS011;13429;48.816;9.118;2022-11-20T15:07:23;3.53;;;1.10;;
25531;SDS011;13429;48.816;9.118;2022-11-20T15:09:59;4.95;;;1.20;;
25531;SDS011;13429;48.816;9.118;2022-11-20T15:12:25;3.97;;;1.30;;
25531;SDS011;13429;48.816;9.118;2022-11-20T15:14:50;3.78;;;1.33;;
25531;SDS011;13429;48.816;9.118;2022-11-20T15:17:16;3.17;;;1.23;;
25531;SDS011;13429;48.816;9.118;2022-11-20T15:19:44;2.65;;;1.60;;
25531;SDS011;13429;48.816;9.118;2022-11-20T15:22:11;2.08;;;1.35;;
25531;SDS011;13429;48.816;9.118;2022-11-20T15:24:38;2.70;;;1.40;;
25531;SDS011;13429;48.816;9.118;2022-11-20T15:27:04;3.08;;;1.55;;
25531;SDS011;13429;48.816;9.118;2022-11-20T15:29:30;5.78;;;2.47;;
25531;SDS011;13429;48.816;9.118;2022-11-20T15:31:56;9.88;;;2.33;;
25531;SDS011;13429;48.816;9.118;2022-11-20T15:34:22;1.95;;;1.05;;
25531;SDS011;13429;48.816;9.118;2022-11-20T15:36:48;3.22;;;1.75;;
25531;SDS011;13429;48.816;9.118;2022-11-20T15:39:14;2.75;;;1.60;;
25531;SDS011;13429;48.816;9.118;2022-11-20T15:41:40;2.35;;;1.50;;
25531;SDS011;13429;48.816;9.118;2022-11-20T15:44:06;3.95;;;1.58;;
25531;SDS011;13429;48.816;9.118;2022-11-20T15:46:32;5.72;;;2.92;;
25531;SDS011;13429;48.816;9.118;2022-11-20T15:49:02;1.92;;;0.98;;
25531;SDS011;13429;48.816;9.118;2022-11-20T15:51:29;2.85;;;1.40;;
25531;SDS011;13429;48.816;9.118;2022-11-20T15:53:56;1.90;;;1.35;;
25531;SDS011;13429;48.816;9.118;2022-11-20T15:56:22;2.65;;;1.65;;
25531;SDS011;13429;48.816;9.118;2022-11-20T15:58:48;4.82;;;1.92;;
25531;SDS011;13429;48.816;9.118;2022-11-20T16:01:18;4.03;;;1.65;;
25531;SDS011;13429;48.816;9.118;2022-11-20T16:03:45;4.03;;;2.30;;
25531;SDS011;13429;48.816;9.118;2022-11-20T16:06:11;5.30;;;1.67;;
25531;SDS011;13429;48.816;9.118;2022-11-20T16:08:37;4.60;;;2.53;;
25531;SDS011;13429;48.816;9.118;2022-11-20T16:11:03;8.15;;;4.20;;
25531;SDS011;13429;48.816;9.118;2022-11-20T16:13:30;6.13;;;3.28;;
25531;SDS011;13429;48.816;9.118;2022-11-20T16:16:25;8.02;;;4.85;;
25531;SDS011;13429;48.816;9.118;2022-11-20T16:18:53;7.32;;;3.85;;
25531;SDS011;13429;48.816;9.118;2022-11-20T16:21:19;10.30;;;8.25;;
25531;SDS011;13429;48.816;9.118;2022-11-20T16:23:45;6.28;;;3.67;;
25531;SDS011;13429;48.816;9.118;2022-11-20T16:26:12;8.45;;;5.38;;
25531;SDS011;13429;48.816;9.118;2022-11-20T16:28:39;24.77;;;11.30;;
25531;SDS011;13429;48.816;9.118;2022-11-20T16:31:08;11.88;;;6.55;;
25531;SDS011;13429;48.816;9.118;2022-11-20T16:33:34;7.20;;;4.25;;
25531;SDS011;13429;48.816;9.118;2022-11-20T16:36:10;10.07;;;6.05;;
25531;SDS011;13429;48.816;9.118;2022-11-20T16:38:37;5.28;;;3.42;;